Time;durP1;ratioP1;P1;durP2;ratioP2;P2;SDS_P1;SDS_P2;PMS_P1;PMS_P2;Temp;Humidity;BMP_temperature;BMP_pressure;BME280_temperature;BME280_humidity;BME280_pressure;Samples;Min_cycle;Max_cycle;Signal;HPM_P1;HPM_P2
2023/09/01 00:00:15;;;;;;;18.88;9.93;;;;;;;-145.63;50.06;38842.38;5023048;28;20030;-69
2023/09/01 00:02:41;;;;;;;13.43;9.07;;;;;;;-145.63;50.01;38807.19;5023060;28;20026;-70
2023/09/01 00:05:07;;;;;;;13.85;9.55;;;;;;;-145.63;50.03;38846.28;5022719;28;20352;-70
2023/09/01 00:07:33;;;;;;;13.55;9.68;;;;;;;-145.63;50.35;38869.75;5023075;28;20279;-70
2023/09/01 00:09:59;;;;;;;18.33;9.82;;;;;;;-145.63;50.85;38854.13;5022539;28;20058;-71
2023/09/01 00:12:25;;;;;;;12.98;9.68;;;;;;;-145.63;49.90;38859.97;5023046;28;20041;-70
2023/09/01 00:14:51;;;;;;;14.60;9.50;;;;;;;-145.63;50.20;38838.47;5022777;28;20029;-69
2023/09/01 00:17:17;;;;;;;11.73;8.63;;;;;;;-145.63;50.11;38854.13;5023200;28;20037;-70
2023/09/01 00:19:43;;;;;;;14.40;9.75;;;;;;;-145.63;50.28;38846.28;5022828;28;20029;-68
2023/09/01 00:22:08;;;;;;;14.77;9.52;;;;;;;-145.63;50.18;38816.97;5028752;28;20042;-68
2023/09/01 00:24:34;;;;;;;13.60;10.23;;;;;;;-145.63;51.31;38852.16;5032275;28;20049;-68
2023/09/01 00:27:00;;;;;;;13.23;9.52;;;;;;;-145.63;50.51;38881.50;5024351;28;20033;-69
2023/09/01 00:29:26;;;;;;;13.95;10.05;;;;;;;-145.63;50.79;38879.53;5026632;28;20026;-69
2023/09/01 00:31:51;;;;;;;12.93;9.77;;;;;;;-145.63;50.81;38859.97;5026345;28;20037;-69
2023/09/01 00:34:17;;;;;;;13.50;9.10;;;;;;;-145.63;50.79;38865.84;5026321;28;20302;-69
2023/09/01 00:36:43;;;;;;;15.60;10.18;;;;;;;-145.63;50.59;38856.06;5026246;28;20030;-69
2023/09/01 00:39:09;;;;;;;14.05;9.75;;;;;;;-145.63;50.89;38838.47;5026172;28;20329;-70
2023/09/01 00:41:35;;;;;;;11.70;10.13;;;;;;;-145.63;51.13;38887.34;5025153;28;20108;-70
2023/09/01 00:44:01;;;;;;;14.13;9.52;;;;;;;-145.63;50.70;38859.97;5026144;28;20065;-69
2023/09/01 00:46:27;;;;;;;13.27;9.18;;;;;;;-145.63;50.89;38863.88;5026127;28;20036;-70
2023/09/01 00:48:56;;;;;;;11.27;10.00;;;;;;;-145.63;50.85;38895.19;5026511;28;20018;-70
2023/09/01 00:51:23;;;;;;;13.20;10.02;;;;;;;-145.63;50.87;38875.63;5026847;28;20295;-70
2023/09/01 00:53:49;;;;;;;16.15;10.60;;;;;;;-145.63;50.62;38887.34;5025630;28;20040;-69
2023/09/01 00:56:15;;;;;;;15.98;9.90;;;;;;;-145.63;50.93;38992.97;5026005;28;20085;-69
2023/09/01 00:58:41;;;;;;;11.90;9.50;;;;;;;-145.63;50.65;38852.16;5025993;28;20038;-69
2023/09/01 01:01:07;;;;;;;14.18;10.10;;;;;;;-145.63;51.67;38903.00;5026246;28;20040;-69
2023/09/01 01:03:35;;;;;;;14.55;10.32;;;;;;;-145.63;51.04;38889.31;5026206;28;20033;-69
2023/09/01 01:06:19;;;;;;;16.40;9.90;;;;;;;-145.63;50.81;38883.44;5025678;28;20096;-70
2023/09/01 01:09:33;;;;;;;15.07;10.00;;;;;;;-145.63;51.14;38887.34;5010411;28;20318;-69
2023/09/01 01:12:14;;;;;;;14.63;9.48;;;;;;;-145.63;51.07;38871.72;5024605;28;20041;-70
2023/09/01 01:14:46;;;;;;;20.90;10.07;;;;;;;-145.63;51.15;38875.63;5024101;28;20210;-69
2023/09/01 01:17:14;;;;;;;17.23;11.00;;;;;;;-145.63;50.95;38840.44;5025832;28;20313;-70
2023/09/01 01:20:02;;;;;;;11.27;9.35;;;;;;;-145.63;51.01;38879.53;5016082;28;20037;-70
2023/09/01 01:22:51;;;;;;;15.70;10.73;;;;;;;-145.63;51.18;38887.34;5030124;28;20025;-70
2023/09/01 01:25:20;;;;;;;16.23;10.38;;;;;;;-145.63;51.59;38899.09;5016486;28;20025;-70
2023/09/01 01:27:45;;;;;;;11.35;9.73;;;;;;;-145.63;51.40;38944.06;5025664;28;20041;-70
2023/09/01 01:30:15;;;;;;;12.95;10.27;;;;;;;-145.63;51.45;38891.28;5025466;28;20029;-69
2023/09/01 01:32:42;;;;;;;13.65;10.30;;;;;;;-145.63;51.56;38850.19;5025250;28;20021;-68
2023/09/01 01:35:42;;;;;;;13.95;10.25;;;;;;;-145.63;51.74;38955.81;5024089;28;20234;-69
2023/09/01 01:38:16;;;;;;;14.38;10.07;;;;;;;-145.63;51.68;38926.47;5025230;28;20030;-67
2023/09/01 01:40:47;;;;;;;16.25;10.75;;;;;;;-145.63;51.87;38955.81;5023872;28;20183;-66
2023/09/01 01:43:16;;;;;;;15.73;9.80;;;;;;;-145.63;51.51;38885.41;5015342;28;20022;-67
2023/09/01 01:45:43;;;;;;;13.30;9.82;;;;;;;-145.63;52.11;38922.56;5025349;28;20105;-66
2023/09/01 01:48:09;;;;;;;13.25;9.48;;;;;;;-145.63;51.99;38887.34;5025198;28;20038;-66
2023/09/01 01:50:35;;;;;;;11.90;10.00;;;;;;;-145.63;51.71;38910.81;5024851;28;20042;-66
2023/09/01 01:53:01;;;;;;;13.80;11.07;;;;;;;-145.63;51.84;38930.38;5023536;28;20032;-67
2023/09/01 01:55:26;;;;;;;12.30;10.32;;;;;;;-145.63;51.78;38875.63;5024966;28;20022;-67
2023/09/01 01:57:52;;;;;;;12.88;10.10;;;;;;;-145.63;52.19;38914.72;5024762;28;20060;-67
2023/09/01 02:00:19;;;;;;;14.98;10.32;;;;;;;-145.63;51.94;38789.59;5025073;28;20048;-67
2023/09/01 02:02:44;;;;;;;15.00;10.00;;;;;;;-145.63;51.95;38871.72;5024398;28;20030;-67
2023/09/01 02:05:10;;;;;;;15.65;10.30;;;;;;;-145.63;51.85;38912.78;5024610;28;20033;-68
2023/09/01 02:07:36;;;;;;;14.98;10.60;;;;;;;-145.63;52.03;38926.47;5019599;28;20029;-66
2023/09/01 02:10:05;;;;;;;17.08;11.07;;;;;;;-145.63;52.01;38903.00;5024474;28;20026;-67
2023/09/01 02:12:33;;;;;;;13.77;10.32;;;;;;;-145.63;52.29;38926.47;5024771;28;20092;-68
2023/09/01 02:15:00;;;;;;;16.25;11.32;;;;;;;-145.63;52.59;38910.81;5024223;28;20030;-69
2023/09/01 02:17:26;;;;;;;15.15;10.60;;;;;;;-145.63;51.88;38918.66;5024674;28;20032;-67
2023/09/01 02:19:52;;;;;;;16.73;10.70;;;;;;;-145.63;52.65;38924.50;5024462;28;20234;-67
2023/09/01 02:22:18;;;;;;;16.10;11.45;;;;;;;-145.63;52.61;38936.25;5032454;28;20024;-68
2023/09/01 02:24:43;;;;;;;17.27;11.13;;;;;;;-145.63;52.80;38963.63;5032246;28;20052;-68
2023/09/01 02:27:09;;;;;;;15.85;12.20;;;;;;;-145.63;52.64;38955.81;5024001;28;20040;-68
2023/09/01 02:29:35;;;;;;;14.27;10.55;;;;;;;-145.63;52.94;38961.66;5024480;28;20021;-67
2023/09/01 02:32:01;;;;;;;15.18;11.70;;;;;;;-145.63;53.15;38969.50;5024213;28;20025;-67
2023/09/01 02:34:26;;;;;;;20.40;11.65;;;;;;;-145.63;53.02;38973.41;5024340;28;20072;-71
2023/09/01 02:36:52;;;;;;;15.68;11.93;;;;;;;-145.63;53.46;38961.66;5023925;28;20022;-68
2023/09/01 02:39:18;;;;;;;15.75;12.55;;;;;;;-145.63;53.06;38977.31;5024250;28;20298;-68
2023/09/01 02:41:43;;;;;;;16.40;11.82;;;;;;;-145.63;53.44;38998.81;5023851;28;20021;-67
2023/09/01 02:44:09;;;;;;;17.58;11.93;;;;;;;-145.63;53.98;38994.91;5023364;28;20261;-68
2023/09/01 02:46:35;;;;;;;17.50;12.07;;;;;;;-145.63;53.61;38967.53;5023595;28;20084;-68
2023/09/01 02:49:01;;;;;;;19.77;12.05;;;;;;;-145.63;53.90;38998.81;5023276;28;20314;-68
2023/09/01 02:51:27;;;;;;;18.98;13.13;;;;;;;-145.63;53.75;38965.56;5024111;28;20042;-68
2023/09/01 02:53:52;;;;;;;16.65;12.48;;;;;;;-145.63;53.85;38996.88;5024060;28;20026;-67
2023/09/01 02:56:18;;;;;;;20.83;12.85;;;;;;;-145.63;53.61;38991.00;5023948;28;20022;-67
2023/09/01 02:58:45;;;;;;;17.48;13.75;;;;;;;-145.63;53.54;39008.59;5023689;28;20057;-67
2023/09/01 03:01:11;;;;;;;23.20;14.77;;;;;;;-145.63;54.09;38992.97;5023658;28;20049;-67
2023/09/01 03:03:39;;;;;;;23.95;14.20;;;;;;;-145.63;54.17;38994.91;5024071;28;20021;-67
2023/09/01 03:06:05;;;;;;;19.30;14.48;;;;;;;-145.63;53.91;38992.97;5023732;28;20061;-67
2023/09/01 03:08:31;;;;;;;18.52;12.77;;;;;;;-145.63;53.00;38983.19;5023873;28;20175;-68
2023/09/01 03:10:57;;;;;;;17.85;14.57;;;;;;;-145.63;53.40;38973.41;5023402;28;20025;-68
2023/09/01 03:13:23;;;;;;;20.73;14.85;;;;;;;-145.63;54.24;39008.59;5006044;28;20101;-68
2023/09/01 03:15:48;;;;;;;19.42;14.43;;;;;;;-145.63;53.91;39010.56;5019760;28;20096;-68
2023/09/01 03:18:14;;;;;;;21.20;14.70;;;;;;;-145.63;54.06;39002.72;5032624;28;20033;-68
2023/09/01 03:20:40;;;;;;;22.65;14.55;;;;;;;-145.63;54.15;39014.47;5024773;28;20033;-68
2023/09/01 03:23:06;;;;;;;24.80;14.90;;;;;;;-145.63;54.18;39004.69;5034082;28;20044;-67
2023/09/01 03:25:32;;;;;;;19.00;14.23;;;;;;;-145.63;54.20;38977.31;5029764;28;20033;-68
2023/09/01 03:27:57;;;;;;;23.90;15.02;;;;;;;-145.63;54.11;38895.19;5029924;28;20029;-68
2023/09/01 03:30:23;;;;;;;22.30;13.82;;;;;;;-145.63;53.96;38991.00;5033042;28;20333;-67
2023/09/01 03:32:49;;;;;;;24.67;14.70;;;;;;;-145.63;53.69;38992.97;5037081;28;20033;-67
2023/09/01 03:35:14;;;;;;;16.35;13.85;;;;;;;-145.63;54.53;39032.06;5025568;28;20242;-68
2023/09/01 03:37:40;;;;;;;21.38;15.15;;;;;;;-145.63;54.28;38981.22;5023392;28;20024;-68
2023/09/01 03:40:09;;;;;;;19.45;13.40;;;;;;;-145.63;54.28;38994.91;5022961;28;20033;-68
2023/09/01 03:42:38;;;;;;;21.80;13.93;;;;;;;-145.63;54.19;38975.34;5022899;28;20057;-68
2023/09/01 03:45:04;;;;;;;18.02;14.05;;;;;;;-145.63;53.46;39004.69;5023111;28;20029;-68
2023/09/01 03:47:30;;;;;;;19.60;13.43;;;;;;;-145.63;53.17;38985.13;5023088;28;20085;-68
2023/09/01 03:49:55;;;;;;;19.08;13.07;;;;;;;-145.63;53.08;38959.72;5022863;28;20080;-68
2023/09/01 03:52:21;;;;;;;17.63;13.32;;;;;;;-145.63;53.72;38973.41;5030664;28;20022;-68
2023/09/01 03:54:47;;;;;;;19.33;14.13;;;;;;;-145.63;53.43;38977.31;5033640;28;20217;-68
2023/09/01 03:57:15;;;;;;;16.60;13.02;;;;;;;-145.63;52.65;38946.03;5027076;28;20029;-68
2023/09/01 03:59:41;;;;;;;19.65;12.73;;;;;;;-145.63;52.73;38959.72;5022817;28;20068;-68
2023/09/01 04:02:07;;;;;;;16.60;12.88;;;;;;;-145.63;52.69;38934.28;5025095;28;20061;-67
2023/09/01 04:04:32;;;;;;;15.02;10.70;;;;;;;-145.63;52.07;38932.34;5026756;28;20029;-68
2023/09/01 04:06:58;;;;;;;20.55;12.13;;;;;;;-145.63;52.14;38928.44;5026917;28;20021;-68
2023/09/01 04:09:23;;;;;;;16.95;11.95;;;;;;;-145.63;52.03;38930.38;5032142;28;20108;-68
2023/09/01 04:11:49;;;;;;;15.30;11.93;;;;;;;-145.63;51.79;38955.81;5023772;28;20553;-69
2023/09/01 04:14:15;;;;;;;16.48;10.43;;;;;;;-145.63;51.45;38914.72;5022878;28;20137;-68
2023/09/01 04:16:41;;;;;;;18.10;12.60;;;;;;;-145.63;51.41;38914.72;5026203;28;20310;-68
2023/09/01 04:19:06;;;;;;;18.35;11.57;;;;;;;-145.63;51.18;38922.56;5026393;28;20037;-68
2023/09/01 04:21:32;;;;;;;16.58;11.07;;;;;;;-145.63;51.79;38897.13;5028122;28;20033;-68
2023/09/01 04:23:58;;;;;;;16.40;11.40;;;;;;;-145.63;51.22;38920.59;5026368;28;20034;-67
2023/09/01 04:26:24;;;;;;;16.58;11.90;;;;;;;-145.63;51.29;38897.13;5036755;28;20037;-68
2023/09/01 04:28:50;;;;;;;16.58;11.10;;;;;;;-145.63;51.35;38912.78;5039223;28;20072;-68
2023/09/01 04:31:27;;;;;;;17.23;12.45;;;;;;;-145.63;50.72;38887.34;5031401;28;20021;-68
2023/09/01 04:33:54;;;;;;;19.95;12.13;;;;;;;-145.63;50.63;38848.25;5025816;28;20038;-68
2023/09/01 04:36:20;;;;;;;19.77;12.07;;;;;;;-145.63;50.14;38877.56;5032665;28;20198;-68
2023/09/01 04:38:46;;;;;;;16.58;11.35;;;;;;;-145.63;50.26;38848.25;5029765;28;20092;-68
2023/09/01 04:41:12;;;;;;;17.63;11.10;;;;;;;-145.63;50.28;38844.34;5028584;28;20030;-69
2023/09/01 04:43:38;;;;;;;17.60;11.05;;;;;;;-145.63;50.25;38852.16;5035929;28;20037;-67
2023/09/01 04:46:04;;;;;;;17.30;11.55;;;;;;;-145.63;49.80;38824.78;5027429;28;20033;-67
2023/09/01 04:48:31;;;;;;;21.20;12.05;;;;;;;-145.63;49.75;38838.47;5026056;28;20033;-67
2023/09/01 04:50:57;;;;;;;18.25;12.40;;;;;;;-145.63;49.48;38830.66;5027139;28;20034;-67
2023/09/01 04:53:23;;;;;;;15.07;10.40;;;;;;;-145.63;49.49;38805.22;5035366;28;20321;-68
2023/09/01 04:55:49;;;;;;;22.80;12.40;;;;;;;-145.63;49.41;38766.13;5027433;28;20030;-67
2023/09/01 04:58:15;;;;;;;19.90;10.23;;;;;;;-145.63;49.13;38805.22;5025863;28;20286;-67
2023/09/01 05:00:41;;;;;;;15.25;10.88;;;;;;;-145.63;49.33;38832.59;5028267;28;20048;-68
2023/09/01 05:03:07;;;;;;;16.88;10.95;;;;;;;-145.63;48.87;38818.91;5031667;28;20068;-67
2023/09/01 05:05:33;;;;;;;16.23;10.88;;;;;;;-145.63;49.73;38801.31;5033682;28;20025;-68
2023/09/01 05:07:59;;;;;;;15.80;10.43;;;;;;;-145.63;48.75;38795.44;5036307;28;20036;-68
2023/09/01 05:10:24;;;;;;;17.42;10.60;;;;;;;-145.63;48.64;38766.13;5033285;28;20049;-68
2023/09/01 05:12:50;;;;;;;14.68;11.07;;;;;;;-145.63;49.38;38789.59;5026376;28;20033;-66
2023/09/01 05:15:16;;;;;;;18.63;10.93;;;;;;;-145.63;48.55;38756.34;5033120;28;20026;-67
2023/09/01 05:17:41;;;;;;;18.35;11.57;;;;;;;-145.63;48.12;38770.03;5025670;28;20214;-68
2023/09/01 05:20:07;;;;;;;21.35;10.98;;;;;;;-145.63;48.20;38742.66;5024833;28;20038;-67
2023/09/01 05:22:34;;;;;;;16.50;10.23;;;;;;;-145.63;47.72;38723.09;5025184;28;20029;-68
2023/09/01 05:25:00;;;;;;;15.77;11.32;;;;;;;-145.63;47.59;38758.28;5025408;28;20037;-68
2023/09/01 05:27:26;;;;;;;16.55;10.88;;;;;;;-145.63;47.23;38740.69;5025486;28;20042;-68
2023/09/01 05:29:52;;;;;;;18.08;11.05;;;;;;;-145.63;47.28;38715.28;5025186;28;20025;-68
2023/09/01 05:32:19;;;;;;;20.77;11.13;;;;;;;-145.63;46.86;38723.09;5025257;28;20042;-67
2023/09/01 05:34:45;;;;;;;20.65;11.25;;;;;;;-145.63;46.53;38680.06;5025342;28;20064;-68
2023/09/01 05:37:14;;;;;;;13.55;9.60;;;;;;;-145.63;46.90;38687.91;5025090;28;20270;-68
2023/09/01 05:39:40;;;;;;;17.25;11.13;;;;;;;-145.63;46.25;38656.59;5025336;28;20338;-67
2023/09/01 05:42:07;;;;;;;21.80;10.57;;;;;;;-145.63;46.73;38648.78;5024745;28;20222;-68
2023/09/01 05:44:33;;;;;;;17.02;9.60;;;;;;;-145.63;46.82;38654.66;5025000;28;20026;-68
2023/09/01 05:46:59;;;;;;;14.68;10.32;;;;;;;-145.63;46.17;38658.56;5024896;28;20044;-67
2023/09/01 05:49:25;;;;;;;18.45;10.60;;;;;;;-145.63;46.06;38642.91;5025000;28;20291;-69
2023/09/01 05:51:51;;;;;;;15.25;10.07;;;;;;;-145.63;45.39;38637.06;5024863;28;20176;-67
2023/09/01 05:54:20;;;;;;;16.63;10.18;;;;;;;-145.63;45.89;38652.69;5024718;28;20025;-68
2023/09/01 05:56:46;;;;;;;15.18;10.43;;;;;;;-145.63;45.81;38633.16;5010452;28;20036;-68
2023/09/01 05:59:12;;;;;;;14.95;10.05;;;;;;;-145.63;45.58;38605.78;5024711;28;20409;-67
2023/09/01 06:01:39;;;;;;;19.10;10.88;;;;;;;-145.63;45.33;38597.94;5024639;28;20105;-67
2023/09/01 06:04:05;;;;;;;22.75;10.70;;;;;;;-145.63;45.50;38588.16;5024490;28;20310;-67
2023/09/01 06:06:31;;;;;;;18.52;10.30;;;;;;;-145.63;44.91;38556.88;5024225;28;20029;-67
2023/09/01 06:09:01;;;;;;;17.20;9.40;;;;;;;-145.63;44.42;38574.47;5024944;28;20024;-67
2023/09/01 06:11:28;;;;;;;14.13;10.27;;;;;;;-145.63;44.77;38519.72;5024539;28;20076;-68
2023/09/01 06:13:54;;;;;;;13.45;8.73;;;;;;;-145.63;44.80;38570.56;5024148;28;20241;-67
2023/09/01 06:16:20;;;;;;;12.75;8.77;;;;;;;-145.63;44.79;38500.19;5023526;28;20026;-68
2023/09/01 06:18:46;;;;;;;16.80;9.15;;;;;;;-145.63;44.00;38508.00;5024429;28;20385;-67
2023/09/01 06:21:15;;;;;;;18.77;10.15;;;;;;;-145.63;44.19;38519.72;5024346;28;20030;-68
2023/09/01 06:23:46;;;;;;;15.27;9.75;;;;;;;-145.63;43.66;38525.59;5023579;28;20065;-68
2023/09/01 06:26:13;;;;;;;14.60;8.70;;;;;;;-145.63;43.45;38484.53;5024153;28;20052;-67
2023/09/01 06:28:40;;;;;;;14.35;8.80;;;;;;;-145.63;43.71;38466.94;5024053;28;20029;-67
2023/09/01 06:31:07;;;;;;;19.50;10.43;;;;;;;-145.63;43.58;38539.28;5024093;28;20579;-67
2023/09/01 06:33:32;;;;;;;13.88;9.48;;;;;;;-145.63;43.71;38433.69;5024271;28;20034;-67
2023/09/01 06:35:58;;;;;;;16.08;9.80;;;;;;;-145.63;43.41;38429.78;5024164;28;20053;-67
2023/09/01 06:38:24;;;;;;;18.60;9.63;;;;;;;-145.63;43.54;38470.84;5024049;28;20037;-68
2023/09/01 06:40:49;;;;;;;15.27;9.05;;;;;;;-145.63;42.48;38433.69;5023595;28;20041;-68
2023/09/01 06:43:15;;;;;;;18.17;9.55;;;;;;;-145.63;42.64;38404.38;5023873;28;20091;-68
2023/09/01 06:45:41;;;;;;;20.05;8.93;;;;;;;-145.63;42.08;38390.69;5024077;28;20076;-68
2023/09/01 06:48:07;;;;;;;17.77;7.95;;;;;;;-145.63;42.33;38371.13;5023935;28;20038;-67
2023/09/01 06:50:33;;;;;;;12.82;7.97;;;;;;;-145.63;42.63;38378.94;5023691;28;20094;-68
2023/09/01 06:52:59;;;;;;;15.63;8.35;;;;;;;-145.63;42.43;38312.47;5023700;28;20068;-67
2023/09/01 06:55:24;;;;;;;16.35;8.52;;;;;;;-145.63;42.07;38341.81;5023741;28;20026;-67
2023/09/01 06:57:50;;;;;;;15.48;9.10;;;;;;;-145.63;41.65;38318.34;5023422;28;20030;-67
2023/09/01 07:00:16;;;;;;;17.55;7.90;;;;;;;-145.63;41.51;38306.59;5023958;28;20029;-67
2023/09/01 07:02:42;;;;;;;15.30;7.93;;;;;;;-145.63;41.29;38285.09;5022575;28;20064;-66
2023/09/01 07:05:08;;;;;;;21.67;9.25;;;;;;;-145.63;41.48;38228.41;5018026;28;20261;-67
2023/09/01 07:07:33;;;;;;;13.73;8.00;;;;;;;-145.63;40.90;38290.97;5023145;28;20337;-68
2023/09/01 07:09:59;;;;;;;15.90;7.57;;;;;;;-145.63;39.82;38246.00;5023100;28;20322;-67
2023/09/01 07:12:25;;;;;;;12.48;7.88;;;;;;;-145.63;39.18;38246.00;5023507;28;20057;-68
2023/09/01 07:14:50;;;;;;;18.00;8.48;;;;;;;-145.63;39.47;38224.47;5023205;28;20037;-68
2023/09/01 07:17:21;;;;;;;20.40;8.35;;;;;;;-145.63;39.61;38220.56;5023526;28;20072;-67
2023/09/01 07:19:47;;;;;;;20.35;7.75;;;;;;;-145.63;39.47;38206.88;5023630;28;20022;-68
2023/09/01 07:22:12;;;;;;;22.10;8.95;;;;;;;-145.63;38.92;38232.31;5022467;28;20262;-68
2023/09/01 07:24:39;;;;;;;11.95;7.70;;;;;;;-145.63;39.68;38150.19;5023548;28;20195;-67
2023/09/01 07:27:06;;;;;;;20.85;8.85;;;;;;;-145.63;39.40;38152.16;5023126;28;20373;-67
2023/09/01 07:29:34;;;;;;;16.52;8.48;;;;;;;-145.63;39.73;38161.91;5023593;28;20026;-67
2023/09/01 07:32:00;;;;;;;14.70;7.30;;;;;;;-145.63;39.79;38130.63;5023098;28;20101;-68
2023/09/01 07:34:26;;;;;;;16.35;7.20;;;;;;;-145.63;39.39;38150.19;5023465;28;20314;-68
2023/09/01 07:36:52;;;;;;;17.25;6.75;;;;;;;-145.63;39.25;38105.22;5023019;28;20049;-68
2023/09/01 07:39:18;;;;;;;11.85;7.70;;;;;;;-145.63;37.80;38081.75;5023451;28;20086;-68
2023/09/01 07:41:43;;;;;;;13.23;7.93;;;;;;;-145.63;38.12;38091.53;5021433;28;20079;-68
2023/09/01 07:44:09;;;;;;;18.40;8.32;;;;;;;-145.63;37.84;38070.03;5023076;28;20038;-67
2023/09/01 07:46:35;;;;;;;15.25;7.57;;;;;;;-145.63;38.52;38054.38;5022884;28;20049;-68
2023/09/01 07:49:02;;;;;;;15.50;7.05;;;;;;;-145.63;37.34;38060.25;5025653;28;20412;-68
2023/09/01 07:51:28;;;;;;;16.30;7.72;;;;;;;-145.63;37.56;38023.09;5045266;28;20022;-67
2023/09/01 07:53:54;;;;;;;12.93;7.60;;;;;;;-145.63;37.42;38007.47;5028580;28;20037;-67
2023/09/01 07:56:23;;;;;;;15.18;6.80;;;;;;;-145.63;37.62;38007.47;5025960;28;20214;-67
2023/09/01 07:58:48;;;;;;;20.98;8.13;;;;;;;-145.63;36.87;37956.63;5022448;28;20057;-69
2023/09/01 08:01:14;;;;;;;11.40;7.53;;;;;;;-145.63;36.15;37970.31;5022622;28;20022;-68
2023/09/01 08:03:40;;;;;;;14.02;8.68;;;;;;;-145.63;36.83;37948.81;5025485;28;20021;-67
2023/09/01 08:06:05;;;;;;;13.75;6.88;;;;;;;-145.63;37.52;37937.09;5035840;28;20225;-67
2023/09/01 08:08:31;;;;;;;14.88;7.05;;;;;;;-145.63;35.38;37931.22;5022672;28;20042;-68
2023/09/01 08:10:57;;;;;;;14.05;6.93;;;;;;;-145.63;35.84;37905.81;5022745;28;20037;-67
2023/09/01 08:13:22;;;;;;;15.02;7.53;;;;;;;-145.63;36.48;37894.06;5019385;28;20022;-68
2023/09/01 08:15:49;;;;;;;12.88;7.80;;;;;;;-145.63;36.14;37878.44;5020663;28;20218;-67
2023/09/01 08:18:14;;;;;;;15.90;7.20;;;;;;;-145.63;35.96;37892.13;5022987;28;20032;-66
2023/09/01 08:20:42;;;;;;;11.50;6.82;;;;;;;-145.63;36.14;37853.00;5024187;28;20217;-67
2023/09/01 08:23:09;;;;;;;17.13;7.25;;;;;;;-145.63;36.23;37829.56;5024962;28;20053;-67
2023/09/01 08:25:35;;;;;;;13.23;7.65;;;;;;;-145.63;36.44;37845.19;5022003;28;20022;-67
2023/09/01 08:28:03;;;;;;;13.25;7.07;;;;;;;-145.63;37.08;37831.50;5013222;28;20038;-67
2023/09/01 08:30:29;;;;;;;16.27;7.95;;;;;;;-145.63;35.43;37792.41;5013496;28;20329;-67
2023/09/01 08:32:54;;;;;;;16.60;9.98;;;;;;;-145.63;34.96;37784.59;5021980;28;20026;-68
2023/09/01 08:35:20;;;;;;;15.02;7.78;;;;;;;-145.63;34.82;37757.22;5022328;28;20300;-67
2023/09/01 08:37:46;;;;;;;13.38;6.75;;;;;;;-145.63;35.15;37712.25;5025418;28;20127;-67
2023/09/01 08:40:12;;;;;;;9.98;6.68;;;;;;;-145.63;34.95;37682.94;5030908;28;20053;-67
2023/09/01 08:42:48;;;;;;;15.90;7.20;;;;;;;-145.63;34.93;37669.25;5021958;28;20028;-67
2023/09/01 08:45:16;;;;;;;17.33;7.70;;;;;;;-145.63;33.94;37651.66;5022131;28;20045;-68
2023/09/01 08:47:49;;;;;;;12.23;7.38;;;;;;;-145.63;34.12;37561.72;5023834;28;20025;-67
2023/09/01 08:50:17;;;;;;;12.77;7.20;;;;;;;-145.63;33.51;37518.72;5026131;28;20084;-68
2023/09/01 08:52:44;;;;;;;13.70;6.70;;;;;;;-145.63;34.77;37147.31;5026022;28;20053;-68
2023/09/01 08:55:13;;;;;;;12.65;7.03;;;;;;;-145.63;32.66;37487.44;5025721;28;20022;-68
2023/09/01 08:57:39;;;;;;;12.95;6.80;;;;;;;-145.63;32.00;37381.88;5025721;28;20053;-67
2023/09/01 09:00:07;;;;;;;12.05;6.45;;;;;;;-145.63;31.17;37323.25;5025045;28;20037;-67
2023/09/01 09:02:41;;;;;;;8.82;5.63;;;;;;;-145.63;30.13;37247.00;5026131;28;20021;-67
2023/09/01 09:05:16;;;;;;;13.02;5.60;;;;;;;-145.63;30.76;37239.19;5025658;28;20222;-67
2023/09/01 09:07:41;;;;;;;9.00;4.97;;;;;;;-145.63;29.60;37076.94;5025729;28;20044;-67
2023/09/01 09:10:09;;;;;;;8.00;5.10;;;;;;;-145.63;30.09;37010.50;5025836;28;20021;-67
2023/09/01 09:12:39;;;;;;;13.05;5.30;;;;;;;-145.63;29.59;36230.69;5025615;28;20053;-67
2023/09/01 09:15:07;;;;;;;11.52;5.40;;;;;;;-145.63;28.35;37016.34;5025802;28;20121;-67
2023/09/01 09:17:46;;;;;;;13.20;5.05;;;;;;;-145.63;28.86;36928.41;5025455;28;20333;-67
2023/09/01 09:20:15;;;;;;;13.85;5.00;;;;;;;-145.63;29.63;36926.44;5023758;28;20029;-67
2023/09/01 09:23:00;;;;;;;8.35;4.90;;;;;;;-145.63;27.98;36990.94;5024461;28;20033;-68
2023/09/01 09:25:35;;;;;;;8.55;5.28;;;;;;;-145.63;27.42;37100.41;5025091;28;20036;-67
2023/09/01 09:28:13;;;;;;;7.25;4.75;;;;;;;-145.63;27.36;36990.94;5025283;28;20326;-68
2023/09/01 09:30:50;;;;;;;9.82;4.82;;;;;;;-145.63;27.33;36989.00;5025389;28;20088;-66
2023/09/01 09:33:26;;;;;;;7.22;4.43;;;;;;;-145.63;27.71;37037.84;5025317;28;20026;-67
2023/09/01 09:35:51;;;;;;;8.40;5.43;;;;;;;-145.63;27.94;36983.13;5024956;28;20018;-67
2023/09/01 09:38:17;;;;;;;11.52;5.10;;;;;;;-145.63;27.66;37073.03;5025312;28;20112;-68
2023/09/01 09:41:09;;;;;;;11.60;4.82;;;;;;;-145.63;28.33;37110.19;5025130;28;20206;-67
2023/09/01 09:43:49;;;;;;;6.97;4.60;;;;;;;-145.63;29.39;37082.81;5021815;28;20045;-68
2023/09/01 09:46:16;;;;;;;6.53;5.07;;;;;;;-145.63;27.94;37131.69;5025320;28;20022;-66
2023/09/01 09:48:44;;;;;;;13.85;5.10;;;;;;;-145.63;28.11;37141.44;5025025;28;20063;-66
2023/09/01 09:51:10;;;;;;;6.88;5.13;;;;;;;-145.63;28.47;37180.53;5025221;28;20207;-67
2023/09/01 09:53:38;;;;;;;12.05;5.30;;;;;;;-145.63;28.77;37194.22;5025366;28;20101;-67
2023/09/01 09:56:33;;;;;;;9.02;4.80;;;;;;;-145.63;28.18;37174.69;5017752;28;20030;-67
2023/09/01 09:59:03;;;;;;;9.75;5.50;;;;;;;-145.63;29.46;37225.50;5023317;28;20052;-68
2023/09/01 10:01:40;;;;;;;8.40;4.80;;;;;;;-145.63;28.29;37225.50;5025271;28;20029;-69
2023/09/01 10:04:06;;;;;;;12.48;5.38;;;;;;;-145.63;28.15;37082.81;5009138;28;20330;-67
2023/09/01 10:06:34;;;;;;;11.30;6.00;;;;;;;-145.63;28.27;37274.38;5024561;28;20057;-68
2023/09/01 10:09:04;;;;;;;6.78;4.90;;;;;;;-145.63;28.62;37252.88;5023003;28;20041;-67
2023/09/01 10:11:30;;;;;;;10.50;5.30;;;;;;;-145.63;28.90;37239.19;5023898;28;20046;-67
2023/09/01 10:13:56;;;;;;;8.68;4.75;;;;;;;-145.63;29.95;37182.50;5022152;28;20022;-66
2023/09/01 10:16:25;;;;;;;12.45;5.40;;;;;;;-145.63;29.55;37161.00;5023058;28;20028;-66
2023/09/01 10:18:52;;;;;;;7.35;5.25;;;;;;;-145.63;28.23;37280.22;5023636;28;20037;-68
2023/09/01 10:21:20;;;;;;;5.43;4.60;;;;;;;-145.63;27.47;37254.81;5022968;28;20030;-68
2023/09/01 10:23:47;;;;;;;6.75;5.07;;;;;;;-145.63;28.62;37250.91;5024271;28;20087;-68
2023/09/01 10:26:28;;;;;;;11.20;5.25;;;;;;;-145.63;27.79;37172.72;5017792;28;20029;-67
2023/09/01 10:28:57;;;;;;;6.85;4.47;;;;;;;-145.63;27.30;37200.09;5018445;28;20022;-68
2023/09/01 10:31:23;;;;;;;10.57;5.40;;;;;;;-145.63;27.85;37243.09;5020829;28;20029;-68
2023/09/01 10:34:03;;;;;;;9.38;5.72;;;;;;;-145.63;28.44;37202.03;5024264;28;20026;-67
2023/09/01 10:36:28;;;;;;;9.43;5.13;;;;;;;-145.63;28.66;37205.94;5012140;28;20094;-68
2023/09/01 10:38:54;;;;;;;8.27;4.78;;;;;;;-145.63;27.48;37204.00;5024145;28;20037;-68
2023/09/01 10:41:50;;;;;;;7.00;5.15;;;;;;;-145.63;27.92;37217.69;5024215;28;20025;-67
2023/09/01 10:44:16;;;;;;;5.30;4.80;;;;;;;-145.63;28.07;37243.09;5019939;28;20042;-68
2023/09/01 10:46:41;;;;;;;10.85;5.50;;;;;;;-145.63;28.16;37188.38;5022994;28;20259;-68
2023/09/01 10:49:09;;;;;;;10.65;5.18;;;;;;;-145.63;28.51;37268.50;5023972;28;20037;-68
2023/09/01 10:51:46;;;;;;;7.90;5.35;;;;;;;-145.63;28.56;37221.59;5024086;28;20026;-68
2023/09/01 10:54:14;;;;;;;6.70;4.85;;;;;;;-145.63;28.15;37270.47;5022077;28;20029;-70
2023/09/01 10:56:57;;;;;;;8.10;4.43;;;;;;;-145.63;28.54;37237.22;5023824;28;20210;-67
2023/09/01 10:59:35;;;;;;;7.80;5.35;;;;;;;-145.63;28.04;37239.19;5024149;28;20072;-68
2023/09/01 11:02:18;;;;;;;9.43;5.10;;;;;;;-145.63;28.98;37186.41;5023600;28;20049;-68
2023/09/01 11:04:45;;;;;;;7.40;5.20;;;;;;;-145.63;28.28;37243.09;5012593;28;20073;-66
2023/09/01 11:07:11;;;;;;;8.73;5.00;;;;;;;-145.63;28.00;37205.94;5023824;28;20209;-66
2023/09/01 11:09:38;;;;;;;10.02;5.10;;;;;;;-145.63;27.29;37217.69;5023381;28;20330;-67